Terminal Aerodrome Forecast
Issued by NWS Binghamton, NY

Home | Current Version | Previous Version | Text Only | Print | Product List | Glossary On
Versions: 1 2 3 4 5 6 7 8 9 10 11 12 13 14 15 16 17 18
000
FTUS41 KBGM 061520 RRA
TAFAVP
TAF
KAVP 061520Z 0615/0712 00000KT P6SM OVC060
     FM062300 20005KT P6SM OVC040
     FM070400 20005KT P6SM SCT015 OVC025=

USA.gov is the U.S. government's official web portal to all federal, state and local government web resources and services.